Terminal Aerodrome Forecast
Issued by NWS Grand Forks, ND

Home | Current Version | Previous Version | Text Only | Print | Product List | Glossary On
Versions: 1 2 3 4 5 6 7 8 9 10 11 12 13
000
FTUS43 KFGF 061500 AAA
TAFGFK
TAF AMD
KGFK 061539Z 0616/0712 16015G25KT 6SM -RA BKN010 OVC015
      TEMPO 0616/0619 3SM -RA BR OVC006
     FM062200 14015G22KT P6SM -RA BKN015 OVC025
     FM070600 16010KT P6SM VCSH OVC025=

USA.gov is the U.S. government's official web portal to all federal, state and local government web resources and services.